Time;durP1;ratioP1;P1;durP2;ratioP2;P2;SDS_P1;SDS_P2;PMS_P1;PMS_P2;Temp;Humidity;BMP_temperature;BMP_pressure;BME280_temperature;BME280_humidity;BME280_pressure;Samples;Min_cycle;Max_cycle;Signal;HPM_P1;HPM_P2
2022/07/24 00:00:29;;;;;;;;;;;16.90;99.90;;;;;;5051035;28;19921;-73
2022/07/24 00:02:55;;;;;;;;;;;16.90;99.90;;;;;;5051311;28;20268;-73
2022/07/24 00:05:20;;;;;;;;;;;16.90;99.90;;;;;;5050711;28;20033;-73
2022/07/24 00:07:46;;;;;;;;;;;16.80;99.90;;;;;;5050991;28;19925;-74
2022/07/24 00:10:11;;;;;;;;;;;16.80;99.90;;;;;;5050958;28;19920;-73
2022/07/24 00:12:37;;;;;;;;;;;16.80;99.90;;;;;;5063330;28;20011;-73
2022/07/24 00:15:03;;;;;;;;;;;16.70;99.90;;;;;;5057086;28;19967;-74
2022/07/24 00:17:28;;;;;;;;;;;16.70;99.90;;;;;;5070219;28;19950;-73
2022/07/24 00:19:54;;;;;;;;;;;16.70;99.90;;;;;;5069838;28;19927;-73
2022/07/24 00:22:19;;;;;;;;;;;16.70;99.90;;;;;;5058608;28;20284;-74
2022/07/24 00:24:45;;;;;;;;;;;16.60;99.90;;;;;;5063180;28;19963;-73
2022/07/24 00:27:10;;;;;;;;;;;16.60;99.90;;;;;;5050683;28;19927;-74
2022/07/24 00:29:36;;;;;;;;;;;16.60;99.90;;;;;;5063944;28;19920;-73
2022/07/24 00:32:01;;;;;;;;;;;16.60;99.90;;;;;;5050361;28;20330;-74
2022/07/24 00:34:27;;;;;;;;;;;16.50;99.90;;;;;;5050304;28;19920;-73
2022/07/24 00:36:52;;;;;;;;;;;16.50;99.90;;;;;;5050045;28;20407;-73
2022/07/24 00:39:18;;;;;;;;;;;16.50;99.90;;;;;;5051010;28;19924;-73
2022/07/24 00:41:43;;;;;;;;;;;16.50;99.90;;;;;;5050670;28;19921;-74
2022/07/24 00:44:11;;;;;;;;;;;16.50;99.90;;;;;;5050148;28;19929;-73
2022/07/24 00:46:38;;;;;;;;;;;16.50;99.90;;;;;;5049370;28;20754;-74
2022/07/24 00:49:04;;;;;;;;;;;16.50;99.90;;;;;;5049447;28;19965;-73
2022/07/24 00:51:30;;;;;;;;;;;16.50;99.90;;;;;;5048865;28;20015;-73
2022/07/24 00:53:55;;;;;;;;;;;16.40;99.90;;;;;;5048274;28;20347;-73
2022/07/24 00:56:21;;;;;;;;;;;16.30;99.90;;;;;;5049411;28;19921;-73
2022/07/24 00:58:47;;;;;;;;;;;16.30;99.90;;;;;;5048237;28;20394;-73
2022/07/24 01:01:13;;;;;;;;;;;16.30;99.90;;;;;;5048819;28;19921;-73
2022/07/24 01:03:39;;;;;;;;;;;16.30;99.90;;;;;;5050028;28;19928;-73
2022/07/24 01:06:05;;;;;;;;;;;16.30;99.90;;;;;;5050349;28;20359;-73
2022/07/24 01:08:31;;;;;;;;;;;16.20;99.90;;;;;;5050534;28;19943;-73
2022/07/24 01:10:57;;;;;;;;;;;16.20;99.90;;;;;;5050248;28;20379;-73
2022/07/24 01:13:22;;;;;;;;;;;16.20;99.90;;;;;;5049583;28;20337;-73
2022/07/24 01:15:48;;;;;;;;;;;16.10;99.90;;;;;;5050078;28;20434;-73
2022/07/24 01:18:13;;;;;;;;;;;16.10;99.90;;;;;;5054358;28;19920;-73
2022/07/24 01:20:39;;;;;;;;;;;16.10;99.90;;;;;;5058425;28;19920;-73
2022/07/24 01:23:05;;;;;;;;;;;16.10;99.90;;;;;;5051721;28;20406;-73
2022/07/24 01:25:30;;;;;;;;;;;16.00;99.90;;;;;;5069630;28;20021;-74
2022/07/24 01:27:57;;;;;;;;;;;16.00;99.90;;;;;;5051733;28;19927;-73
2022/07/24 01:30:23;;;;;;;;;;;16.00;99.90;;;;;;5049920;28;20464;-74
2022/07/24 01:32:48;;;;;;;;;;;16.00;99.90;;;;;;5061085;28;19955;-73
2022/07/24 01:35:14;;;;;;;;;;;16.00;99.90;;;;;;5049107;28;19928;-73
2022/07/24 01:37:39;;;;;;;;;;;15.90;99.90;;;;;;5048326;28;20015;-73
2022/07/24 01:40:05;;;;;;;;;;;15.90;99.90;;;;;;5049528;28;20094;-73
2022/07/24 01:42:31;;;;;;;;;;;15.90;99.90;;;;;;5049537;28;19924;-73
2022/07/24 01:44:56;;;;;;;;;;;15.90;99.90;;;;;;5047665;28;19921;-73
2022/07/24 01:47:22;;;;;;;;;;;15.80;99.90;;;;;;5051791;28;19928;-73
2022/07/24 01:49:47;;;;;;;;;;;15.90;99.90;;;;;;5056975;28;19920;-73
2022/07/24 01:52:13;;;;;;;;;;;15.80;99.90;;;;;;5068021;28;19924;-73
2022/07/24 01:54:38;;;;;;;;;;;15.80;99.90;;;;;;5051157;28;19932;-73
2022/07/24 01:57:04;;;;;;;;;;;15.80;99.90;;;;;;5049510;28;20383;-73
2022/07/24 01:59:30;;;;;;;;;;;15.80;99.90;;;;;;5062707;28;19932;-73
2022/07/24 02:01:55;;;;;;;;;;;15.80;99.90;;;;;;5049246;28;20513;-73
2022/07/24 02:04:21;;;;;;;;;;;15.80;99.90;;;;;;5053122;28;19975;-73
2022/07/24 02:06:47;;;;;;;;;;;15.80;99.90;;;;;;5061735;28;19926;-73
2022/07/24 02:09:12;;;;;;;;;;;15.80;99.90;;;;;;5058102;28;19963;-73
2022/07/24 02:11:38;;;;;;;;;;;15.80;99.90;;;;;;5053583;28;20258;-73
2022/07/24 02:14:03;;;;;;;;;;;15.70;99.90;;;;;;5053100;28;19971;-73
2022/07/24 02:16:29;;;;;;;;;;;15.70;99.90;;;;;;5053316;28;19924;-73
2022/07/24 02:18:54;;;;;;;;;;;15.70;99.90;;;;;;5053316;28;19956;-73
2022/07/24 02:21:20;;;;;;;;;;;15.70;99.90;;;;;;5053481;28;19921;-73
2022/07/24 02:23:45;;;;;;;;;;;15.70;99.90;;;;;;5060489;28;19927;-73
2022/07/24 02:26:11;;;;;;;;;;;15.70;99.90;;;;;;5059039;28;20283;-73
2022/07/24 02:28:36;;;;;;;;;;;15.70;99.90;;;;;;5052985;28;20371;-73
2022/07/24 02:31:02;;;;;;;;;;;15.70;99.90;;;;;;5052321;28;19928;-73
2022/07/24 02:33:28;;;;;;;;;;;15.70;99.90;;;;;;5053283;28;19928;-73
2022/07/24 02:35:53;;;;;;;;;;;15.70;99.90;;;;;;5052476;28;19920;-73
2022/07/24 02:38:19;;;;;;;;;;;15.70;99.90;;;;;;5059708;28;19969;-73
2022/07/24 02:40:44;;;;;;;;;;;15.70;99.90;;;;;;5058867;28;19928;-73
2022/07/24 02:43:10;;;;;;;;;;;15.70;99.90;;;;;;5065056;28;19921;-73
2022/07/24 02:45:36;;;;;;;;;;;15.60;99.90;;;;;;5066451;28;20310;-73
2022/07/24 02:48:01;;;;;;;;;;;15.60;99.90;;;;;;5065217;28;20236;-73
2022/07/24 02:50:31;;;;;;;;;;;15.70;99.90;;;;;;5052897;28;19921;-73
2022/07/24 02:52:57;;;;;;;;;;;15.60;99.90;;;;;;5052539;28;19920;-73
2022/07/24 02:55:22;;;;;;;;;;;15.60;99.90;;;;;;5052582;28;19928;-73
2022/07/24 02:57:48;;;;;;;;;;;15.60;99.90;;;;;;5059225;28;20371;-73
2022/07/24 03:00:15;;;;;;;;;;;15.60;99.90;;;;;;5058849;28;20603;-73
2022/07/24 03:02:41;;;;;;;;;;;15.70;99.90;;;;;;5039621;28;19920;-74
2022/07/24 03:05:07;;;;;;;;;;;15.70;99.90;;;;;;5065395;28;20626;-73
2022/07/24 03:07:32;;;;;;;;;;;15.70;99.90;;;;;;5064989;28;19925;-74
2022/07/24 03:09:58;;;;;;;;;;;15.70;99.90;;;;;;5052077;28;19920;-73
2022/07/24 03:12:24;;;;;;;;;;;15.60;99.90;;;;;;5046370;28;19921;-73
2022/07/24 03:14:49;;;;;;;;;;;15.70;99.90;;;;;;5056866;28;19928;-73
2022/07/24 03:17:15;;;;;;;;;;;15.60;99.90;;;;;;5070974;28;19981;-73
2022/07/24 03:19:40;;;;;;;;;;;15.60;99.90;;;;;;5070362;28;20037;-73
2022/07/24 03:22:06;;;;;;;;;;;15.60;99.90;;;;;;5052040;28;19924;-73
2022/07/24 03:24:32;;;;;;;;;;;15.60;99.90;;;;;;5052019;28;20387;-73
2022/07/24 03:26:57;;;;;;;;;;;15.60;99.90;;;;;;5069994;28;19920;-73
2022/07/24 03:29:23;;;;;;;;;;;15.60;99.90;;;;;;5058375;28;19933;-73
2022/07/24 03:31:48;;;;;;;;;;;15.60;99.90;;;;;;5070298;28;19924;-73
2022/07/24 03:34:14;;;;;;;;;;;15.60;99.90;;;;;;5070917;28;19920;-73
2022/07/24 03:36:39;;;;;;;;;;;15.60;99.90;;;;;;5062849;28;19924;-73
2022/07/24 03:39:05;;;;;;;;;;;15.60;99.90;;;;;;5064377;28;19924;-73
2022/07/24 03:41:31;;;;;;;;;;;15.60;99.90;;;;;;5069118;28;19920;-74
2022/07/24 03:43:56;;;;;;;;;;;15.60;99.90;;;;;;5070456;28;19921;-73
2022/07/24 03:46:22;;;;;;;;;;;15.60;99.90;;;;;;5063232;28;19928;-73
2022/07/24 03:48:47;;;;;;;;;;;15.70;99.90;;;;;;5051380;28;19931;-73
2022/07/24 03:51:13;;;;;;;;;;;15.70;99.90;;;;;;5051172;28;20272;-73
2022/07/24 03:53:38;;;;;;;;;;;15.70;99.90;;;;;;5051508;28;19925;-73
2022/07/24 03:56:06;;;;;;;;;;;15.70;99.90;;;;;;5051130;28;19986;-73
2022/07/24 03:58:31;;;;;;;;;;;15.80;99.90;;;;;;5064108;28;19928;-73
2022/07/24 04:00:57;;;;;;;;;;;15.80;99.90;;;;;;5051416;28;19921;-73
2022/07/24 04:03:22;;;;;;;;;;;15.80;99.90;;;;;;5051548;28;20011;-73
2022/07/24 04:05:48;;;;;;;;;;;15.80;99.90;;;;;;5051185;28;19921;-74
2022/07/24 04:08:13;;;;;;;;;;;15.80;99.90;;;;;;5051368;28;19931;-73
2022/07/24 04:10:39;;;;;;;;;;;15.90;99.90;;;;;;5063537;28;19921;-73
2022/07/24 04:13:04;;;;;;;;;;;15.90;99.90;;;;;;5050058;28;19932;-73
2022/07/24 04:15:30;;;;;;;;;;;15.90;99.90;;;;;;5056140;28;19924;-73
2022/07/24 04:17:55;;;;;;;;;;;15.90;99.90;;;;;;5070723;28;19927;-73
2022/07/24 04:20:21;;;;;;;;;;;15.90;99.90;;;;;;5070113;28;19920;-73
2022/07/24 04:22:47;;;;;;;;;;;16.00;99.90;;;;;;5070124;28;19921;-73
2022/07/24 04:25:13;;;;;;;;;;;16.00;99.90;;;;;;5052101;28;19921;-73
2022/07/24 04:27:38;;;;;;;;;;;16.00;99.90;;;;;;5050008;28;19927;-73
2022/07/24 04:30:04;;;;;;;;;;;16.00;99.90;;;;;;5050442;28;20066;-73
2022/07/24 04:32:30;;;;;;;;;;;16.00;99.90;;;;;;5050795;28;19925;-73
2022/07/24 04:34:56;;;;;;;;;;;16.00;99.90;;;;;;5051350;28;19951;-73
2022/07/24 04:37:21;;;;;;;;;;;16.00;99.90;;;;;;5050843;28;19921;-73
2022/07/24 04:39:47;;;;;;;;;;;16.00;99.90;;;;;;5050566;28;19920;-73
2022/07/24 04:42:12;;;;;;;;;;;16.00;99.90;;;;;;5050710;28;19950;-73
2022/07/24 04:44:38;;;;;;;;;;;16.00;99.90;;;;;;5051147;28;19921;-73
2022/07/24 04:47:03;;;;;;;;;;;16.00;99.90;;;;;;5050530;28;20140;-73
2022/07/24 04:49:29;;;;;;;;;;;16.00;99.90;;;;;;5050981;28;19924;-73
2022/07/24 04:51:54;;;;;;;;;;;16.00;99.90;;;;;;5050235;28;20003;-73
2022/07/24 04:54:20;;;;;;;;;;;16.10;99.90;;;;;;5050403;28;19974;-72
2022/07/24 04:56:46;;;;;;;;;;;16.10;99.90;;;;;;5050457;28;19966;-73
2022/07/24 04:59:11;;;;;;;;;;;16.20;99.90;;;;;;5062231;28;20394;-73
2022/07/24 05:01:38;;;;;;;;;;;16.20;99.90;;;;;;5050290;28;19928;-73
2022/07/24 05:04:03;;;;;;;;;;;16.20;99.90;;;;;;5067417;28;20003;-72
2022/07/24 05:06:29;;;;;;;;;;;16.20;99.90;;;;;;5069974;28;20018;-73
2022/07/24 05:08:54;;;;;;;;;;;16.30;99.90;;;;;;5055747;28;19927;-73
2022/07/24 05:11:20;;;;;;;;;;;16.30;99.90;;;;;;5069426;28;19920;-74
2022/07/24 05:13:45;;;;;;;;;;;16.30;99.90;;;;;;5051727;28;19921;-73
2022/07/24 05:16:11;;;;;;;;;;;16.40;99.90;;;;;;5031727;28;19983;-73
2022/07/24 05:18:37;;;;;;;;;;;16.40;99.90;;;;;;5048780;28;19943;-73
2022/07/24 05:21:02;;;;;;;;;;;16.40;99.90;;;;;;5049981;28;20307;-73
2022/07/24 05:23:28;;;;;;;;;;;16.40;99.90;;;;;;5049868;28;19975;-73
2022/07/24 05:25:53;;;;;;;;;;;16.50;99.90;;;;;;5049620;28;19975;-73
2022/07/24 05:28:19;;;;;;;;;;;16.50;99.90;;;;;;5061569;28;19929;-73
2022/07/24 05:30:45;;;;;;;;;;;16.60;99.90;;;;;;5050104;28;19967;-74
2022/07/24 05:33:10;;;;;;;;;;;16.60;99.90;;;;;;5061113;28;19924;-73
2022/07/24 05:35:36;;;;;;;;;;;16.70;99.90;;;;;;5060327;28;19967;-73
2022/07/24 05:38:01;;;;;;;;;;;16.80;99.90;;;;;;5055081;28;19924;-73
2022/07/24 05:40:27;;;;;;;;;;;16.90;99.90;;;;;;5069393;28;19928;-73
2022/07/24 05:42:52;;;;;;;;;;;16.90;99.90;;;;;;5064132;28;20399;-73
2022/07/24 05:45:18;;;;;;;;;;;17.00;99.90;;;;;;5060369;28;20382;-73
2022/07/24 05:47:43;;;;;;;;;;;17.10;99.90;;;;;;5064322;28;20320;-73
2022/07/24 05:50:10;;;;;;;;;;;17.20;99.90;;;;;;5049616;28;20367;-73
2022/07/24 05:52:36;;;;;;;;;;;17.30;99.90;;;;;;5053349;28;19920;-74
2022/07/24 05:55:02;;;;;;;;;;;17.40;99.90;;;;;;5058312;28;19974;-73
2022/07/24 05:57:27;;;;;;;;;;;17.50;99.90;;;;;;5065994;28;19972;-73
2022/07/24 05:59:53;;;;;;;;;;;17.70;99.90;;;;;;5068769;28;19924;-74
2022/07/24 06:02:18;;;;;;;;;;;17.80;99.90;;;;;;5052182;28;19943;-73
2022/07/24 06:04:44;;;;;;;;;;;17.90;99.90;;;;;;5049318;28;20013;-73
2022/07/24 06:07:10;;;;;;;;;;;17.90;99.90;;;;;;5048534;28;20050;-73
2022/07/24 06:09:36;;;;;;;;;;;18.00;99.90;;;;;;5049733;28;19927;-73
2022/07/24 06:12:02;;;;;;;;;;;18.10;99.90;;;;;;5049359;28;19921;-73
2022/07/24 06:14:28;;;;;;;;;;;18.10;99.90;;;;;;5049677;28;19921;-73
2022/07/24 06:16:53;;;;;;;;;;;18.20;99.90;;;;;;5049070;28;20016;-73
2022/07/24 06:19:19;;;;;;;;;;;18.20;99.90;;;;;;5049655;28;20019;-73
2022/07/24 06:21:44;;;;;;;;;;;18.30;99.90;;;;;;5048982;28;20293;-73
2022/07/24 06:24:10;;;;;;;;;;;18.30;99.90;;;;;;5049382;28;20629;-73
2022/07/24 06:26:35;;;;;;;;;;;18.40;99.90;;;;;;5049177;28;20358;-73
2022/07/24 06:29:01;;;;;;;;;;;18.50;99.90;;;;;;5049025;28;20393;-73
2022/07/24 06:31:26;;;;;;;;;;;18.60;99.90;;;;;;5049168;28;19921;-73
2022/07/24 06:33:52;;;;;;;;;;;18.70;99.90;;;;;;5048987;28;20333;-73
2022/07/24 06:36:17;;;;;;;;;;;18.80;99.90;;;;;;5062154;28;20468;-73
2022/07/24 06:38:43;;;;;;;;;;;19.00;99.90;;;;;;5048786;28;19921;-73
2022/07/24 06:41:08;;;;;;;;;;;19.10;99.90;;;;;;5062055;28;20011;-72
2022/07/24 06:43:34;;;;;;;;;;;19.10;99.90;;;;;;5048758;28;20286;-72
2022/07/24 06:45:59;;;;;;;;;;;19.20;99.90;;;;;;5048948;28;19924;-73
2022/07/24 06:48:25;;;;;;;;;;;19.20;99.90;;;;;;5048084;28;20386;-73
2022/07/24 06:50:51;;;;;;;;;;;19.20;99.90;;;;;;5051479;28;19928;-73
2022/07/24 06:53:16;;;;;;;;;;;19.30;99.90;;;;;;5052358;28;19946;-73
2022/07/24 06:55:42;;;;;;;;;;;19.30;99.90;;;;;;5054161;28;19944;-73
2022/07/24 06:58:07;;;;;;;;;;;19.40;99.90;;;;;;5061882;28;19928;-73
2022/07/24 07:00:33;;;;;;;;;;;19.50;99.90;;;;;;5058644;28;19964;-72
2022/07/24 07:02:58;;;;;;;;;;;19.60;99.90;;;;;;5072137;28;19974;-73
2022/07/24 07:05:24;;;;;;;;;;;19.70;99.90;;;;;;5069313;28;19929;-73
2022/07/24 07:07:49;;;;;;;;;;;19.70;99.90;;;;;;5052172;28;19952;-73
2022/07/24 07:10:15;;;;;;;;;;;19.80;99.90;;;;;;5051890;28;19929;-73
2022/07/24 07:12:41;;;;;;;;;;;19.90;99.90;;;;;;5060749;28;19920;-73
2022/07/24 07:15:07;;;;;;;;;;;19.90;99.90;;;;;;5069319;28;20054;-73
2022/07/24 07:17:33;;;;;;;;;;;20.00;99.90;;;;;;5061072;28;20007;-73
2022/07/24 07:19:58;;;;;;;;;;;20.10;99.90;;;;;;5056592;28;20039;-72
2022/07/24 07:22:24;;;;;;;;;;;20.20;99.90;;;;;;5061290;28;20437;-73
2022/07/24 07:24:49;;;;;;;;;;;20.30;99.90;;;;;;5051792;28;19929;-73
2022/07/24 07:27:15;;;;;;;;;;;20.40;99.90;;;;;;5051546;28;19921;-73
2022/07/24 07:29:40;;;;;;;;;;;20.40;99.90;;;;;;5064761;28;20330;-73
2022/07/24 07:32:06;;;;;;;;;;;20.50;99.90;;;;;;5060724;28;19921;-73
2022/07/24 07:34:31;;;;;;;;;;;20.50;99.90;;;;;;5070399;28;19967;-73
2022/07/24 07:36:57;;;;;;;;;;;20.50;99.90;;;;;;5070808;28;20044;-73
2022/07/24 07:39:22;;;;;;;;;;;20.60;99.90;;;;;;5068974;28;20406;-73
2022/07/24 07:41:48;;;;;;;;;;;20.60;99.90;;;;;;5059867;28;20011;-73
2022/07/24 07:44:13;;;;;;;;;;;20.60;99.90;;;;;;5057370;28;19999;-74
2022/07/24 07:46:39;;;;;;;;;;;20.70;99.90;;;;;;5062406;28;19925;-73
2022/07/24 07:49:04;;;;;;;;;;;20.80;99.90;;;;;;5051363;28;19924;-72
2022/07/24 07:51:30;;;;;;;;;;;20.80;99.90;;;;;;5051721;28;19928;-72
2022/07/24 07:53:55;;;;;;;;;;;20.90;99.90;;;;;;5047773;28;19924;-72
2022/07/24 07:56:21;;;;;;;;;;;20.90;99.90;;;;;;5062695;28;19921;-72
2022/07/24 07:58:46;;;;;;;;;;;21.00;99.90;;;;;;5063922;28;19920;-72
2022/07/24 08:01:12;;;;;;;;;;;21.10;99.90;;;;;;5051517;28;20309;-72
2022/07/24 08:03:38;;;;;;;;;;;21.20;99.90;;;;;;5052371;28;19928;-72
2022/07/24 08:06:04;;;;;;;;;;;21.30;99.90;;;;;;5063353;28;20003;-72
2022/07/24 08:08:30;;;;;;;;;;;21.40;99.90;;;;;;5051040;28;20334;-72
2022/07/24 08:10:55;;;;;;;;;;;21.60;99.90;;;;;;5050491;28;19921;-72
2022/07/24 08:13:21;;;;;;;;;;;21.80;99.90;;;;;;5051518;28;19920;-72
2022/07/24 08:15:46;;;;;;;;;;;22.10;99.90;;;;;;5050891;28;19920;-72
2022/07/24 08:18:12;;;;;;;;;;;22.40;99.90;;;;;;5051249;28;19920;-73
2022/07/24 08:20:37;;;;;;;;;;;22.60;99.90;;;;;;5051055;28;19921;-72
2022/07/24 08:23:03;;;;;;;;;;;22.80;99.90;;;;;;5051087;28;20272;-72
2022/07/24 08:25:28;;;;;;;;;;;22.90;99.90;;;;;;5043922;28;20291;-74
2022/07/24 08:27:54;;;;;;;;;;;23.00;99.90;;;;;;5048850;28;19989;-74
2022/07/24 08:30:21;;;;;;;;;;;23.10;99.90;;;;;;5050052;28;19973;-74
2022/07/24 08:32:47;;;;;;;;;;;23.20;99.90;;;;;;5048360;28;19920;-74
2022/07/24 08:35:13;;;;;;;;;;;23.30;99.90;;;;;;5049231;28;20337;-74
2022/07/24 08:37:39;;;;;;;;;;;23.20;99.90;;;;;;5048999;28;20015;-74
2022/07/24 08:40:05;;;;;;;;;;;23.20;99.90;;;;;;5051973;28;19928;-73
2022/07/24 08:42:31;;;;;;;;;;;23.20;99.90;;;;;;5059950;28;19928;-73
2022/07/24 08:44:57;;;;;;;;;;;23.20;99.90;;;;;;5048277;28;19924;-74
2022/07/24 08:47:22;;;;;;;;;;;23.20;99.90;;;;;;5048955;28;19927;-74
2022/07/24 08:49:51;;;;;;;;;;;23.30;99.90;;;;;;5049389;28;20472;-74
2022/07/24 08:52:17;;;;;;;;;;;23.50;99.90;;;;;;5049601;28;19921;-74
2022/07/24 08:54:43;;;;;;;;;;;23.70;99.90;;;;;;5049534;28;19927;-73
2022/07/24 08:57:08;;;;;;;;;;;23.90;99.90;;;;;;5054134;28;20302;-74
2022/07/24 08:59:34;;;;;;;;;;;24.30;99.90;;;;;;5048713;28;20382;-74
2022/07/24 09:02:00;;;;;;;;;;;24.60;99.10;;;;;;5047550;28;19931;-74
2022/07/24 09:04:43;;;;;;;;;;;24.70;97.60;;;;;;5049825;28;19995;-74
2022/07/24 09:07:10;;;;;;;;;;;24.80;97.30;;;;;;5046104;28;19963;-74
2022/07/24 09:09:37;;;;;;;;;;;24.80;97.50;;;;;;5040346;28;20020;-74
2022/07/24 09:12:16;;;;;;;;;;;24.70;97.80;;;;;;5039690;28;20011;-74
2022/07/24 09:14:43;;;;;;;;;;;24.70;96.40;;;;;;5048539;28;19917;-74
2022/07/24 09:17:11;;;;;;;;;;;24.60;97.00;;;;;;5049679;28;19921;-74
2022/07/24 09:19:53;;;;;;;;;;;24.50;96.60;;;;;;5046589;28;20303;-74
2022/07/24 09:22:45;;;;;;;;;;;24.50;96.70;;;;;;5048093;28;19920;-74
2022/07/24 09:25:12;;;;;;;;;;;24.50;96.90;;;;;;5041269;28;19978;-74
2022/07/24 09:27:45;;;;;;;;;;;24.60;97.50;;;;;;5049323;28;19921;-74
2022/07/24 09:30:20;;;;;;;;;;;24.80;97.80;;;;;;5043949;28;19968;-74
2022/07/24 09:32:51;;;;;;;;;;;25.10;96.50;;;;;;5048430;28;19927;-73
2022/07/24 09:35:16;;;;;;;;;;;25.20;95.80;;;;;;5047980;28;20019;-73
2022/07/24 09:37:52;;;;;;;;;;;25.40;95.10;;;;;;5049088;28;20004;-74
2022/07/24 09:40:18;;;;;;;;;;;25.70;94.30;;;;;;5048101;28;20014;-73
2022/07/24 09:42:44;;;;;;;2.60;1.50;;;26.00;93.70;;;;;;5048630;28;20020;-74
2022/07/24 09:45:10;;;;;;;4.72;2.10;;;26.30;94.60;;;;;;5047248;28;20044;-73
2022/07/24 09:47:36;;;;;;;5.10;1.75;;;26.60;94.20;;;;;;5047432;28;20045;-74
2022/07/24 09:50:17;;;;;;;2.85;1.40;;;26.70;93.60;;;;;;5047974;28;20129;-74
2022/07/24 09:52:43;;;;;;;2.25;1.55;;;27.10;93.40;;;;;;5048251;28;20048;-74
2022/07/24 09:55:24;;;;;;;2.53;1.50;;;27.40;93.50;;;;;;5049945;28;20043;-74
2022/07/24 09:57:50;;;;;;;4.78;1.90;;;27.60;92.60;;;;;;5044199;28;20953;-73
2022/07/24 10:00:16;;;;;;;4.25;2.40;;;27.80;92.40;;;;;;5047142;28;20085;-73
2022/07/24 10:02:44;;;;;;;4.72;1.95;;;28.10;92.50;;;;;;5048196;28;20122;-72
2022/07/24 10:05:12;;;;;;;2.70;1.42;;;28.30;90.80;;;;;;5048059;28;20514;-73
2022/07/24 10:07:39;;;;;;;3.00;1.70;;;28.40;91.00;;;;;;5048869;28;20042;-74
2022/07/24 10:10:05;;;;;;;5.93;2.22;;;28.40;90.60;;;;;;5039796;28;20041;-72
2022/07/24 10:12:32;;;;;;;2.97;1.52;;;28.60;91.00;;;;;;5048982;28;20045;-72
2022/07/24 10:15:00;;;;;;;3.70;2.15;;;28.80;90.10;;;;;;5047738;28;20049;-73
2022/07/24 10:19:03;;;;;;;5.90;2.10;;;28.90;88.00;;;;;;5086793;28;20459;-72
2022/07/24 10:21:30;;;;;;;4.28;1.80;;;29.10;88.90;;;;;;5086546;28;20048;-73
2022/07/24 10:24:08;;;;;;;2.97;1.60;;;29.30;86.90;;;;;;5084900;28;20040;-73
2022/07/24 10:26:40;;;;;;;3.40;1.80;;;29.40;85.70;;;;;;5086754;28;20067;-73
2022/07/24 10:29:15;;;;;;;3.45;1.65;;;29.50;83.60;;;;;;5085178;28;20403;-73
2022/07/24 10:31:43;;;;;;;3.22;1.90;;;29.30;80.90;;;;;;5078681;28;20417;-73
2022/07/24 10:34:38;;;;;;;4.40;1.58;;;29.00;82.60;;;;;;5077127;28;20457;-73
2022/07/24 10:37:20;;;;;;;3.80;1.50;;;28.90;83.00;;;;;;5079976;28;20511;-73
2022/07/24 10:39:58;;;;;;;3.72;1.50;;;29.00;84.50;;;;;;5083466;28;20839;-72
2022/07/24 10:42:23;;;;;;;;;;;29.10;82.60;;;;;;5086450;28;20052;-72
2022/07/24 10:45:08;;;;;;;;;;;29.00;81.00;;;;;;5086421;28;19920;-72
2022/07/24 10:47:33;;;;;;;;;;;29.00;83.30;;;;;;5083487;28;19925;-73
2022/07/24 10:50:00;;;;;;;;;;;29.00;81.50;;;;;;5076565;28;19920;-73
2022/07/24 10:52:31;;;;;;;4.45;1.13;;;29.20;83.10;;;;;;5086219;28;19921;-73
2022/07/24 10:55:18;;;;;;;2.50;1.50;;;29.20;80.20;;;;;;5085618;28;20044;-73
2022/07/24 10:57:53;;;;;;;2.35;1.60;;;29.30;81.80;;;;;;5073468;28;20040;-73
2022/07/24 11:00:37;;;;;;;3.97;1.70;;;29.50;80.10;;;;;;5084605;28;20048;-73
2022/07/24 11:03:05;;;;;;;;;;;29.50;80.70;;;;;;5086179;28;20056;-73
2022/07/24 11:05:31;;;;;;;;;;;29.40;79.00;;;;;;5086232;28;19920;-73
2022/07/24 11:08:11;;;;;;;;;;;29.20;77.60;;;;;;5085449;28;19920;-72
2022/07/24 11:10:50;;;;;;;;;;;29.00;76.70;;;;;;5086295;28;19920;-73
2022/07/24 11:13:31;;;;;;;;;;;28.90;79.20;;;;;;5085456;28;19924;-73
2022/07/24 11:16:26;;;;;;;;;;;28.90;75.80;;;;;;5085586;28;19928;-73
2022/07/24 11:18:51;;;;;;;;;;;29.10;78.80;;;;;;5063591;28;19920;-73
2022/07/24 11:21:40;;;;;;;3.60;1.37;;;29.40;78.80;;;;;;5085146;28;19924;-73
2022/07/24 11:24:16;;;;;;;2.75;1.30;;;29.80;78.00;;;;;;5075101;28;20052;-73
2022/07/24 11:26:53;;;;;;;;;;;30.00;79.10;;;;;;5084631;28;20036;-73
2022/07/24 11:29:23;;;;;;;;;;;29.80;75.70;;;;;;5077397;28;20003;-72
2022/07/24 11:31:51;;;;;;;;;;;29.50;76.30;;;;;;5071917;28;19927;-73
2022/07/24 11:34:17;;;;;;;2.20;1.20;;;29.30;75.50;;;;;;5071826;28;20290;-73
2022/07/24 11:36:47;;;;;;;2.13;1.20;;;29.30;75.10;;;;;;5071396;28;20070;-73
2022/07/24 11:39:14;;;;;;;1.98;1.33;;;29.60;75.10;;;;;;5071556;28;20057;-73
2022/07/24 11:41:47;;;;;;;3.13;0.98;;;29.90;75.40;;;;;;5071704;28;20044;-73
2022/07/24 11:44:13;;;;;;;4.03;1.60;;;30.20;74.50;;;;;;5070448;28;20040;-73
2022/07/24 11:46:41;;;;;;;3.53;1.27;;;30.50;73.40;;;;;;5071738;28;20611;-72
2022/07/24 11:49:12;;;;;;;2.40;1.00;;;30.70;72.30;;;;;;5071445;28;20167;-72
2022/07/24 11:51:45;;;;;;;5.55;1.38;;;30.80;72.90;;;;;;5061409;28;20044;-73
2022/07/24 11:54:12;;;;;;;2.10;1.13;;;30.90;73.00;;;;;;5055790;28;20041;-73
2022/07/24 11:56:39;;;;;;;3.15;1.30;;;31.10;72.20;;;;;;5071159;28;20048;-72
2022/07/24 11:59:05;;;;;;;7.22;2.20;;;31.30;70.90;;;;;;5070592;28;20600;-73
2022/07/24 12:01:31;;;;;;;2.40;1.27;;;31.40;71.20;;;;;;5071581;28;20068;-73
2022/07/24 12:03:59;;;;;;;4.20;1.35;;;31.60;71.00;;;;;;5071334;28;20517;-73
2022/07/24 12:06:26;;;;;;;2.40;1.17;;;31.70;70.00;;;;;;5071741;28;20037;-73
2022/07/24 12:08:57;;;;;;;3.80;1.20;;;31.90;67.50;;;;;;5069521;28;20557;-72
2022/07/24 12:11:22;;;;;;;4.80;1.40;;;32.00;66.60;;;;;;5069699;28;20119;-73
2022/07/24 12:13:49;;;;;;;2.63;1.00;;;32.00;66.90;;;;;;5070225;28;20112;-73
2022/07/24 12:16:25;;;;;;;;;;;32.20;67.90;;;;;;5071605;28;20464;-73
2022/07/24 12:18:50;;;;;;;;;;;32.20;67.00;;;;;;5071023;28;20287;-73
2022/07/24 12:21:17;;;;;;;3.00;1.10;;;32.30;67.60;;;;;;5069791;28;19924;-73
2022/07/24 12:23:46;;;;;;;1.77;1.20;;;32.60;68.20;;;;;;5070207;28;20044;-72
2022/07/24 12:26:13;;;;;;;2.85;1.02;;;32.90;65.50;;;;;;5070453;28;20044;-73
2022/07/24 12:28:38;;;;;;;2.70;1.13;;;32.90;62.40;;;;;;5051338;28;20128;-73
2022/07/24 12:31:08;;;;;;;2.25;0.90;;;32.80;61.40;;;;;;5063900;28;20131;-73
2022/07/24 12:33:34;;;;;;;1.75;0.85;;;32.70;62.80;;;;;;5064502;28;20499;-73
2022/07/24 12:36:15;;;;;;;2.40;0.75;;;32.70;63.40;;;;;;5063700;28;20059;-72
2022/07/24 12:38:52;;;;;;;2.85;1.05;;;32.80;65.40;;;;;;5069545;28;20465;-72
2022/07/24 12:41:22;;;;;;;2.63;1.10;;;33.00;62.70;;;;;;5069230;28;20484;-72
2022/07/24 12:43:55;;;;;;;2.03;1.05;;;33.10;63.40;;;;;;5070717;28;20041;-73
2022/07/24 12:46:23;;;;;;;3.08;1.15;;;33.10;61.00;;;;;;5065450;28;20037;-73
2022/07/24 12:49:08;;;;;;;2.13;1.17;;;33.10;61.70;;;;;;5063833;28;20105;-73
2022/07/24 12:52:03;;;;;;;;;;;32.90;60.70;;;;;;5059857;28;20776;-72
2022/07/24 12:54:30;;;;;;;;;;;32.80;61.50;;;;;;5049640;28;19964;-73
2022/07/24 12:57:06;;;;;;;1.63;0.90;;;32.70;62.00;;;;;;5061541;28;19926;-73
2022/07/24 12:59:36;;;;;;;;;;;32.80;62.20;;;;;;5049978;28;20406;-73
2022/07/24 13:02:05;;;;;;;;;;;32.80;62.60;;;;;;5064025;28;19965;-73
2022/07/24 13:04:31;;;;;;;4.07;1.40;;;33.00;60.50;;;;;;5058370;28;20337;-73
2022/07/24 13:07:00;;;;;;;3.17;1.10;;;33.20;60.00;;;;;;5060560;28;20056;-73
2022/07/24 13:09:28;;;;;;;5.55;1.40;;;33.40;61.60;;;;;;5059415;28;20454;-73
2022/07/24 13:11:55;;;;;;;2.15;1.20;;;33.60;59.80;;;;;;5066839;28;20400;-73
2022/07/24 13:14:22;;;;;;;;;;;33.40;58.70;;;;;;5059647;28;20044;-73
2022/07/24 13:16:49;;;;;;;2.70;1.02;;;33.10;58.60;;;;;;5063193;28;20065;-73
2022/07/24 13:19:17;;;;;;;3.50;1.60;;;32.90;59.40;;;;;;5069992;28;20056;-73
2022/07/24 13:21:43;;;;;;;2.42;1.45;;;33.00;60.80;;;;;;5065732;28;20040;-74
2022/07/24 13:24:11;;;;;;;3.33;1.10;;;33.20;59.70;;;;;;5060014;28;20041;-74
2022/07/24 13:26:37;;;;;;;2.35;1.10;;;33.50;57.70;;;;;;5051741;28;20068;-74
2022/07/24 13:29:04;;;;;;;1.80;1.00;;;33.80;57.40;;;;;;5059576;28;20106;-74
2022/07/24 13:31:30;;;;;;;3.22;1.00;;;33.80;56.50;;;;;;5063336;28;20136;-73
2022/07/24 13:33:55;;;;;;;1.80;0.82;;;33.80;57.10;;;;;;5051641;28;20485;-73
2022/07/24 13:36:21;;;;;;;2.17;1.10;;;34.00;56.90;;;;;;5053154;28;20079;-73
2022/07/24 13:38:47;;;;;;;4.32;1.00;;;34.10;56.70;;;;;;5060524;28;20226;-73
2022/07/24 13:41:13;;;;;;;3.50;1.20;;;34.30;56.70;;;;;;5065610;28;20037;-74
2022/07/24 13:43:39;;;;;;;3.75;1.17;;;34.50;56.90;;;;;;5068806;28;20044;-73
2022/07/24 13:46:05;;;;;;;2.40;0.90;;;34.80;56.10;;;;;;5066323;28;20036;-73
2022/07/24 13:48:31;;;;;;;2.60;0.95;;;34.70;55.00;;;;;;5054494;28;20072;-74
2022/07/24 13:50:57;;;;;;;4.15;0.88;;;34.70;54.60;;;;;;5050787;28;20064;-73
2022/07/24 13:53:23;;;;;;;1.60;0.75;;;34.90;54.90;;;;;;5050782;28;20372;-73
2022/07/24 13:55:49;;;;;;;1.88;1.08;;;35.10;55.00;;;;;;5057832;28;20073;-74